<?xml version='1.0' encoding='UTF-8'?><gpx version="1.1" creator="JPX - https://github.com/jenetics/jpx" xmlns="http://www.topografix.com/GPX/1/1"><trk><trkseg><trkpt lat="46.061075278606" lon="12.55732121172603"><ele>140.0</ele><time>2026-04-25T12:08:45.09Z</time></trkpt><trkpt lat="46.06111358667861" lon="12.55724287602614"><ele>140.0</ele><time>2026-04-25T12:08:52.001Z</time></trkpt><trkpt lat="46.061162680803484" lon="12.55718390273851"><ele>140.0</ele><time>2026-04-25T12:08:59Z</time></trkpt><trkpt lat="46.06119987982222" lon="12.557088431457286"><ele>140.0</ele><time>2026-04-25T12:09:06Z</time></trkpt><trkpt lat="46.06124031623639" lon="12.5570025160449"><ele>140.0</ele><time>2026-04-25T12:09:11Z</time></trkpt><trkpt lat="46.0612677756683" lon="12.55690880663507"><ele>140.0</ele><time>2026-04-25T12:09:17Z</time></trkpt><trkpt lat="46.061298058347646" lon="12.556817942728793"><ele>140.0</ele><time>2026-04-25T12:09:27Z</time></trkpt><trkpt lat="46.06134064887689" lon="12.556733839283513"><ele>140.33333333333331</ele><time>2026-04-25T12:09:53Z</time></trkpt><trkpt lat="46.06139155982924" lon="12.556677025589421"><ele>140.66666666666666</ele><time>2026-04-25T12:09:58.999Z</time></trkpt><trkpt lat="46.06144159209093" lon="12.556595707651038"><ele>141.0</ele><time>2026-04-25T12:10:06.999Z</time></trkpt><trkpt lat="46.0614495150336" lon="12.556494978302887"><ele>141.33333333333334</ele><time>2026-04-25T12:10:15.999Z</time></trkpt><trkpt lat="46.061484624042926" lon="12.556363383745275"><ele>141.66666666666669</ele><time>2026-04-25T12:10:28.999Z</time></trkpt><trkpt lat="46.06150774637903" lon="12.556272735603507"><ele>142.0</ele><time>2026-04-25T12:10:37.999Z</time></trkpt><trkpt lat="46.06155902483798" lon="12.55618606898971"><ele>142.28571428571428</ele><time>2026-04-25T12:10:44.999Z</time></trkpt><trkpt lat="46.06161697547666" lon="12.556140737520439"><ele>142.57142857142856</ele><time>2026-04-25T12:10:49.999Z</time></trkpt><trkpt lat="46.061644533016384" lon="12.55604635077129"><ele>142.85714285714286</ele><time>2026-04-25T12:10:53.999Z</time></trkpt><trkpt lat="46.06165611901505" lon="12.555943274138702"><ele>143.14285714285714</ele><time>2026-04-25T12:11:00.999Z</time></trkpt><trkpt lat="46.06166992655188" lon="12.555832309104636"><ele>143.42857142857144</ele><time>2026-04-25T12:11:05.999Z</time></trkpt><trkpt lat="46.061675612052646" lon="12.555737321621598"><ele>143.71428571428572</ele><time>2026-04-25T12:11:09.999Z</time></trkpt><trkpt lat="46.0616931674651" lon="12.55563364115631"><ele>144.0</ele><time>2026-04-25T12:11:15.999Z</time></trkpt><trkpt lat="46.061712660629645" lon="12.555546536558085"><ele>144.00000000000003</ele><time>2026-04-25T12:11:23.999Z</time></trkpt><trkpt lat="46.061720408767904" lon="12.555444975907164"><ele>144.0</ele><time>2026-04-25T12:11:28.999Z</time></trkpt><trkpt lat="46.0617065310772" lon="12.555350548828402"><ele>144.0</ele><time>2026-04-25T12:11:36.999Z</time></trkpt><trkpt lat="46.06168411027256" lon="12.555261621414454"><ele>144.0</ele><time>2026-04-25T12:11:44.999Z</time></trkpt><trkpt lat="46.06174091053202" lon="12.555205246289113"><ele>144.0</ele><time>2026-04-25T12:11:51.999Z</time></trkpt><trkpt lat="46.061798182716565" lon="12.555154182386655"><ele>144.00000000000003</ele><time>2026-04-25T12:11:58.999Z</time></trkpt><trkpt lat="46.06186808121336" lon="12.555087618392283"><ele>144.0</ele><time>2026-04-25T12:12:13.999Z</time></trkpt><trkpt lat="46.06190931781837" lon="12.555017337139944"><ele>144.57142857142858</ele><time>2026-04-25T12:12:29.999Z</time></trkpt><trkpt lat="46.061983425693754" lon="12.554991666897545"><ele>145.14285714285714</ele><time>2026-04-25T12:12:42.998Z</time></trkpt><trkpt lat="46.06201699037863" lon="12.554894170053744"><ele>145.71428571428572</ele><time>2026-04-25T12:12:58.999Z</time></trkpt><trkpt lat="46.06198574022581" lon="12.55479789595341"><ele>146.28571428571428</ele><time>2026-04-25T12:13:12.999Z</time></trkpt><trkpt lat="46.06199952494679" lon="12.554703444105256"><ele>146.85714285714286</ele><time>2026-04-25T12:13:19.999Z</time></trkpt><trkpt lat="46.0619836965358" lon="12.554603186944071"><ele>147.42857142857144</ele><time>2026-04-25T12:13:25.999Z</time></trkpt><trkpt lat="46.06195738755945" lon="12.554515785225572"><ele>148.0</ele><time>2026-04-25T12:13:30.999Z</time></trkpt><trkpt lat="46.06192938392996" lon="12.554430458285326"><ele>148.28571428571428</ele><time>2026-04-25T12:13:36.999Z</time></trkpt><trkpt lat="46.061902368429045" lon="12.554337236602196"><ele>148.57142857142856</ele><time>2026-04-25T12:13:42.999Z</time></trkpt><trkpt lat="46.0618952178017" lon="12.554233349396643"><ele>148.85714285714283</ele><time>2026-04-25T12:13:51.999Z</time></trkpt><trkpt lat="46.061833438877386" lon="12.554174910408884"><ele>149.14285714285714</ele><time>2026-04-25T12:14:05.999Z</time></trkpt><trkpt lat="46.06179053114442" lon="12.554102312007371"><ele>149.42857142857142</ele><time>2026-04-25T12:14:16.999Z</time></trkpt><trkpt lat="46.061726013406144" lon="12.554085236880434"><ele>149.7142857142857</ele><time>2026-04-25T12:14:39.999Z</time></trkpt><trkpt lat="46.061721038507656" lon="12.553991926147958"><ele>150.0</ele><time>2026-04-25T12:14:48.998Z</time></trkpt><trkpt lat="46.061689266025645" lon="12.553904047788075"><ele>149.99999999999997</ele><time>2026-04-25T12:15:00.999Z</time></trkpt><trkpt lat="46.06164943651465" lon="12.553819145591799"><ele>150.0</ele><time>2026-04-25T12:15:09.999Z</time></trkpt><trkpt lat="46.06165333546179" lon="12.553720918663506"><ele>150.0</ele><time>2026-04-25T12:15:15.999Z</time></trkpt><trkpt lat="46.06165112692443" lon="12.553627728107639"><ele>150.0</ele><time>2026-04-25T12:15:51.999Z</time></trkpt><trkpt lat="46.061669824703365" lon="12.553527832404082"><ele>150.0</ele><time>2026-04-25T12:15:59.999Z</time></trkpt><trkpt lat="46.06168960889684" lon="12.553434600065538"><ele>149.99999999999997</ele><time>2026-04-25T12:16:06.999Z</time></trkpt><trkpt lat="46.06168723856191" lon="12.553339978137238"><ele>150.0</ele><time>2026-04-25T12:16:12.999Z</time></trkpt><trkpt lat="46.06171721914466" lon="12.553257874013179"><ele>150.14285714285714</ele><time>2026-04-25T12:16:18.999Z</time></trkpt><trkpt lat="46.06172975111869" lon="12.553165816082666"><ele>150.28571428571428</ele><time>2026-04-25T12:16:25.999Z</time></trkpt><trkpt lat="46.06181920642465" lon="12.553097731865858"><ele>150.42857142857144</ele><time>2026-04-25T12:16:40.999Z</time></trkpt><trkpt lat="46.06188165713165" lon="12.553047748298646"><ele>150.57142857142856</ele><time>2026-04-25T12:16:52Z</time></trkpt><trkpt lat="46.061910798935756" lon="12.552946604540333"><ele>150.71428571428572</ele><time>2026-04-25T12:17:01.999Z</time></trkpt><trkpt lat="46.06194596024414" lon="12.552868845625342"><ele>150.85714285714286</ele><time>2026-04-25T12:17:07.999Z</time></trkpt><trkpt lat="46.06195506429091" lon="12.552768677874568"><ele>151.0</ele><time>2026-04-25T12:17:17.999Z</time></trkpt><trkpt lat="46.062012439930506" lon="12.552708657202093"><ele>151.00000000000003</ele><time>2026-04-25T12:18:04Z</time></trkpt><trkpt lat="46.062018822994474" lon="12.552613769522512"><ele>151.0</ele><time>2026-04-25T12:18:20Z</time></trkpt><trkpt lat="46.06198593459164" lon="12.552524882851941"><ele>151.0</ele><time>2026-04-25T12:18:26Z</time></trkpt><trkpt lat="46.06197475087574" lon="12.552420298480309"><ele>151.0</ele><time>2026-04-25T12:18:32Z</time></trkpt><trkpt lat="46.06200746964015" lon="12.552341898895701"><ele>151.0</ele><time>2026-04-25T12:18:36Z</time></trkpt><trkpt lat="46.061991673790374" lon="12.552249486778974"><ele>151.00000000000003</ele><time>2026-04-25T12:18:43Z</time></trkpt><trkpt lat="46.06198338651468" lon="12.552154442492897"><ele>151.0</ele><time>2026-04-25T12:18:49Z</time></trkpt><trkpt lat="46.061998028682524" lon="12.552063539636814"><ele>151.0</ele><time>2026-04-25T12:18:57Z</time></trkpt><trkpt lat="46.0620475902103" lon="12.551967260448954"><ele>151.0</ele><time>2026-04-25T12:19:05.999Z</time></trkpt><trkpt lat="46.0621035348139" lon="12.552028534814939"><ele>151.0</ele><time>2026-04-25T12:19:17.999Z</time></trkpt><trkpt lat="46.062148751407186" lon="12.552116738974965"><ele>151.0</ele><time>2026-04-25T12:19:25.999Z</time></trkpt><trkpt lat="46.06221712292499" lon="12.552223577327423"><ele>151.0</ele><time>2026-04-25T12:19:35.999Z</time></trkpt><trkpt lat="46.06226426916779" lon="12.552286050417512"><ele>151.0</ele><time>2026-04-25T12:19:43.999Z</time></trkpt><trkpt lat="46.0622616668058" lon="12.552383466090813"><ele>151.00000000000003</ele><time>2026-04-25T12:19:50.999Z</time></trkpt><trkpt lat="46.06229410532163" lon="12.552470419405514"><ele>151.0</ele><time>2026-04-25T12:19:57Z</time></trkpt><trkpt lat="46.06232174499726" lon="12.552553887281801"><ele>151.0</ele><time>2026-04-25T12:20:06Z</time></trkpt><trkpt lat="46.062363087586725" lon="12.552635699291972"><ele>151.0</ele><time>2026-04-25T12:20:13Z</time></trkpt><trkpt lat="46.06237408134854" lon="12.552728526111007"><ele>151.0</ele><time>2026-04-25T12:20:20Z</time></trkpt><trkpt lat="46.06238946114522" lon="12.55282511818848"><ele>151.00000000000003</ele><time>2026-04-25T12:20:24Z</time></trkpt><trkpt lat="46.062398896460806" lon="12.55293119212658"><ele>151.0</ele><time>2026-04-25T12:20:31Z</time></trkpt><trkpt lat="46.062382524322096" lon="12.55302816268678"><ele>151.00000000000003</ele><time>2026-04-25T12:20:35Z</time></trkpt><trkpt lat="46.06238884725828" lon="12.553131089216455"><ele>151.0</ele><time>2026-04-25T12:20:41Z</time></trkpt><trkpt lat="46.0623848890401" lon="12.553226834448719"><ele>151.0</ele><time>2026-04-25T12:20:48Z</time></trkpt><trkpt lat="46.06238714389329" lon="12.553318383696782"><ele>151.0</ele><time>2026-04-25T12:20:54Z</time></trkpt><trkpt lat="46.06239914086659" lon="12.55341883502771"><ele>151.0</ele><time>2026-04-25T12:21:00Z</time></trkpt><trkpt lat="46.06242108930588" lon="12.553505511598916"><ele>151.00000000000003</ele><time>2026-04-25T12:21:07.999Z</time></trkpt><trkpt lat="46.06243214493587" lon="12.553600803407452"><ele>151.0</ele><time>2026-04-25T12:21:13.999Z</time></trkpt><trkpt lat="46.06243661212212" lon="12.553704639879546"><ele>152.14285714285717</ele><time>2026-04-25T12:21:18.999Z</time></trkpt><trkpt lat="46.062483179943314" lon="12.553776357322953"><ele>153.28571428571428</ele><time>2026-04-25T12:21:24.999Z</time></trkpt><trkpt lat="46.06251746143057" lon="12.55385802239503"><ele>154.42857142857144</ele><time>2026-04-25T12:21:29Z</time></trkpt><trkpt lat="46.06254249629551" lon="12.55394181620396"><ele>155.57142857142858</ele><time>2026-04-25T12:21:35Z</time></trkpt><trkpt lat="46.0625349044923" lon="12.554031983951567"><ele>156.71428571428572</ele><time>2026-04-25T12:21:41Z</time></trkpt><trkpt lat="46.0625680939413" lon="12.55411964091549"><ele>157.85714285714286</ele><time>2026-04-25T12:21:48Z</time></trkpt><trkpt lat="46.06263493432395" lon="12.55416343905421"><ele>159.0</ele><time>2026-04-25T12:21:59Z</time></trkpt><trkpt lat="46.06269677712472" lon="12.554204184315926"><ele>159.0</ele><time>2026-04-25T12:22:04Z</time></trkpt><trkpt lat="46.0627769490705" lon="12.554178685366074"><ele>159.0</ele><time>2026-04-25T12:22:14Z</time></trkpt><trkpt lat="46.06284083008367" lon="12.55414114106881"><ele>159.0</ele><time>2026-04-25T12:22:22Z</time></trkpt><trkpt lat="46.06290739723223" lon="12.554127736212951"><ele>159.0</ele><time>2026-04-25T12:22:28Z</time></trkpt><trkpt lat="46.06296174884811" lon="12.55407878464012"><ele>159.0</ele><time>2026-04-25T12:22:33Z</time></trkpt><trkpt lat="46.06299753704092" lon="12.553993802548646"><ele>159.0</ele><time>2026-04-25T12:22:40Z</time></trkpt><trkpt lat="46.063060580024214" lon="12.553970932031875"><ele>159.0</ele><time>2026-04-25T12:22:59Z</time></trkpt><trkpt lat="46.06311410823109" lon="12.554035737889151"><ele>159.0</ele><time>2026-04-25T12:23:04Z</time></trkpt><trkpt lat="46.06316783733561" lon="12.554092482729676"><ele>159.0</ele><time>2026-04-25T12:23:09.001Z</time></trkpt><trkpt lat="46.063171113888195" lon="12.554185236803994"><ele>159.0</ele><time>2026-04-25T12:23:16.999Z</time></trkpt><trkpt lat="46.06322125219681" lon="12.55424321126507"><ele>159.0</ele><time>2026-04-25T12:23:22.999Z</time></trkpt><trkpt lat="46.063270274344376" lon="12.554310977794719"><ele>159.0</ele><time>2026-04-25T12:23:29.999Z</time></trkpt><trkpt lat="46.06330383698641" lon="12.554388335615373"><ele>159.0</ele><time>2026-04-25T12:23:34.999Z</time></trkpt><trkpt lat="46.06334785818148" lon="12.554475794981407"><ele>159.0</ele><time>2026-04-25T12:23:42Z</time></trkpt><trkpt lat="46.06340608455671" lon="12.554537399146687"><ele>161.0</ele><time>2026-04-25T12:23:53Z</time></trkpt><trkpt lat="46.06344829896323" lon="12.554613282358737"><ele>163.0</ele><time>2026-04-25T12:24:00Z</time></trkpt><trkpt lat="46.06346339266153" lon="12.554710229930672"><ele>165.0</ele><time>2026-04-25T12:24:05Z</time></trkpt><trkpt lat="46.063514755279705" lon="12.554785776371657"><ele>167.0</ele><time>2026-04-25T12:24:14Z</time></trkpt><trkpt lat="46.06355160179227" lon="12.554866603074212"><ele>169.0</ele><time>2026-04-25T12:24:20Z</time></trkpt><trkpt lat="46.063631722051795" lon="12.554913577004823"><ele>171.0</ele><time>2026-04-25T12:24:30Z</time></trkpt><trkpt lat="46.06369780309169" lon="12.554933875592072"><ele>173.0</ele><time>2026-04-25T12:24:36Z</time></trkpt><trkpt lat="46.063772606109" lon="12.554963952284021"><ele>173.0</ele><time>2026-04-25T12:24:42Z</time></trkpt><trkpt lat="46.06382547123065" lon="12.555022675095758"><ele>173.0</ele><time>2026-04-25T12:24:50.001Z</time></trkpt><trkpt lat="46.063891099250675" lon="12.555047869023674"><ele>173.0</ele><time>2026-04-25T12:24:54.001Z</time></trkpt><trkpt lat="46.06395749608758" lon="12.555091011033268"><ele>173.0</ele><time>2026-04-25T12:24:58.001Z</time></trkpt><trkpt lat="46.06400289940468" lon="12.555174687178964"><ele>173.0</ele><time>2026-04-25T12:25:04.001Z</time></trkpt><trkpt lat="46.06404924473327" lon="12.555246502469105"><ele>173.0</ele><time>2026-04-25T12:25:12.001Z</time></trkpt><trkpt lat="46.06408567628195" lon="12.555331457995099"><ele>173.0</ele><time>2026-04-25T12:25:19.999Z</time></trkpt><trkpt lat="46.06410917453593" lon="12.555417112216487"><ele>174.5</ele><time>2026-04-25T12:25:27.999Z</time></trkpt><trkpt lat="46.06416230385517" lon="12.555471483086443"><ele>176.0</ele><time>2026-04-25T12:25:38.999Z</time></trkpt><trkpt lat="46.06421152321555" lon="12.555553070541553"><ele>177.5</ele><time>2026-04-25T12:25:55Z</time></trkpt><trkpt lat="46.06420737586636" lon="12.555655842591834"><ele>179.0</ele><time>2026-04-25T12:27:09Z</time></trkpt><trkpt lat="46.06427646008462" lon="12.555680337634648"><ele>180.5</ele><time>2026-04-25T12:27:15.001Z</time></trkpt><trkpt lat="46.06434447360904" lon="12.555716841524523"><ele>182.0</ele><time>2026-04-25T12:27:24.999Z</time></trkpt><trkpt lat="46.064438059055774" lon="12.555772789097864"><ele>182.0</ele><time>2026-04-25T12:27:34Z</time></trkpt><trkpt lat="46.06448956736747" lon="12.55582543369336"><ele>182.0</ele><time>2026-04-25T12:27:41Z</time></trkpt><trkpt lat="46.06455728010969" lon="12.55586985457585"><ele>182.0</ele><time>2026-04-25T12:27:47Z</time></trkpt><trkpt lat="46.064579411361805" lon="12.555994239123025"><ele>182.0</ele><time>2026-04-25T12:28:49Z</time></trkpt><trkpt lat="46.06462335656473" lon="12.556069737685291"><ele>182.0</ele><time>2026-04-25T12:29:09.001Z</time></trkpt><trkpt lat="46.064660034516024" lon="12.55614368228487"><ele>182.0</ele><time>2026-04-25T12:29:17.001Z</time></trkpt><trkpt lat="46.0647014574044" lon="12.556215130692348"><ele>182.0</ele><time>2026-04-25T12:29:23.001Z</time></trkpt><trkpt lat="46.06476195663013" lon="12.556269809545581"><ele>182.42857142857142</ele><time>2026-04-25T12:29:29Z</time></trkpt><trkpt lat="46.06476976030108" lon="12.556365509012036"><ele>182.85714285714286</ele><time>2026-04-25T12:29:35Z</time></trkpt><trkpt lat="46.06478440606052" lon="12.556455179324523"><ele>183.28571428571428</ele><time>2026-04-25T12:29:40Z</time></trkpt><trkpt lat="46.06482626132573" lon="12.55652700797325"><ele>183.71428571428572</ele><time>2026-04-25T12:29:46Z</time></trkpt><trkpt lat="46.06484126656305" lon="12.556623748670612"><ele>184.14285714285714</ele><time>2026-04-25T12:29:50Z</time></trkpt><trkpt lat="46.06482995916849" lon="12.55672415178575"><ele>184.57142857142856</ele><time>2026-04-25T12:29:55Z</time></trkpt><trkpt lat="46.064786633035325" lon="12.55679343238467"><ele>185.0</ele><time>2026-04-25T12:30:01Z</time></trkpt><trkpt lat="46.06472448600676" lon="12.55686771542356"><ele>184.99999999999997</ele><time>2026-04-25T12:30:07Z</time></trkpt><trkpt lat="46.064698544464456" lon="12.556951349402672"><ele>185.0</ele><time>2026-04-25T12:30:14Z</time></trkpt><trkpt lat="46.064725382901" lon="12.557040456696614"><ele>185.0</ele><time>2026-04-25T12:30:20Z</time></trkpt><trkpt lat="46.064758133361096" lon="12.557118705745154"><ele>185.0</ele><time>2026-04-25T12:30:26.001Z</time></trkpt><trkpt lat="46.06478012297898" lon="12.55722462981437"><ele>185.0</ele><time>2026-04-25T12:30:34.001Z</time></trkpt><trkpt lat="46.06478966230559" lon="12.55731781961241"><ele>184.99999999999997</ele><time>2026-04-25T12:30:41.001Z</time></trkpt><trkpt lat="46.06484385918816" lon="12.557385245822683"><ele>185.0</ele><time>2026-04-25T12:30:48.001Z</time></trkpt><trkpt lat="46.0648914674717" lon="12.557456934653331"><ele>185.85714285714283</ele><time>2026-04-25T12:30:52.001Z</time></trkpt><trkpt lat="46.064927353805786" lon="12.557557740167859"><ele>186.71428571428572</ele><time>2026-04-25T12:30:59.001Z</time></trkpt><trkpt lat="46.06496961895563" lon="12.55763359795306"><ele>187.57142857142856</ele><time>2026-04-25T12:31:05.001Z</time></trkpt><trkpt lat="46.06499026966804" lon="12.557735894905214"><ele>188.42857142857142</ele><time>2026-04-25T12:31:11.001Z</time></trkpt><trkpt lat="46.065033574496894" lon="12.557809848040476"><ele>189.28571428571428</ele><time>2026-04-25T12:31:18.001Z</time></trkpt><trkpt lat="46.06507764543702" lon="12.557898988710548"><ele>190.14285714285714</ele><time>2026-04-25T12:31:34.001Z</time></trkpt><trkpt lat="46.06509642673174" lon="12.557999874913742"><ele>191.0</ele><time>2026-04-25T12:31:43Z</time></trkpt><trkpt lat="46.06514358224336" lon="12.558061704880599"><ele>191.85714285714286</ele><time>2026-04-25T12:32:02Z</time></trkpt><trkpt lat="46.06516470769248" lon="12.558153439438051"><ele>192.7142857142857</ele><time>2026-04-25T12:32:07Z</time></trkpt><trkpt lat="46.065219198913276" lon="12.558216908768737"><ele>193.57142857142856</ele><time>2026-04-25T12:32:15Z</time></trkpt><trkpt lat="46.06527151559142" lon="12.558301209442451"><ele>194.42857142857144</ele><time>2026-04-25T12:32:20Z</time></trkpt><trkpt lat="46.065310663426835" lon="12.558382649472167"><ele>195.28571428571428</ele><time>2026-04-25T12:32:26Z</time></trkpt><trkpt lat="46.06535076327713" lon="12.558463833109236"><ele>196.14285714285714</ele><time>2026-04-25T12:32:35Z</time></trkpt><trkpt lat="46.06541114907499" lon="12.558493997731116"><ele>197.0</ele><time>2026-04-25T12:32:40Z</time></trkpt><trkpt lat="46.06551340953259" lon="12.558520986980795"><ele>197.0</ele><time>2026-04-25T12:32:54Z</time></trkpt><trkpt lat="46.0655690929447" lon="12.558580530997736"><ele>197.0</ele><time>2026-04-25T12:32:59.001Z</time></trkpt><trkpt lat="46.06560891949205" lon="12.558650864205298"><ele>197.0</ele><time>2026-04-25T12:33:05.001Z</time></trkpt><trkpt lat="46.06567464109354" lon="12.558675862111278"><ele>197.0</ele><time>2026-04-25T12:33:12.001Z</time></trkpt><trkpt lat="46.065729531567555" lon="12.55872379840992"><ele>197.0</ele><time>2026-04-25T12:33:18.001Z</time></trkpt><trkpt lat="46.06577793556386" lon="12.558809267038681"><ele>197.0</ele><time>2026-04-25T12:33:24.001Z</time></trkpt><trkpt lat="46.06582323146806" lon="12.558893964303305"><ele>197.0</ele><time>2026-04-25T12:33:29.001Z</time></trkpt><trkpt lat="46.06585270402757" lon="12.55898879908222"><ele>197.28571428571428</ele><time>2026-04-25T12:33:35.001Z</time></trkpt><trkpt lat="46.065900938870485" lon="12.559054702691135"><ele>197.57142857142858</ele><time>2026-04-25T12:33:41Z</time></trkpt><trkpt lat="46.06599868139222" lon="12.559070262086871"><ele>197.85714285714283</ele><time>2026-04-25T12:34:01Z</time></trkpt><trkpt lat="46.06603526644855" lon="12.559146975035699"><ele>198.14285714285714</ele><time>2026-04-25T12:34:07Z</time></trkpt><trkpt lat="46.06609754484173" lon="12.55918989290812"><ele>198.42857142857142</ele><time>2026-04-25T12:34:14Z</time></trkpt><trkpt lat="46.06613403059673" lon="12.559276984527402"><ele>198.7142857142857</ele><time>2026-04-25T12:34:23Z</time></trkpt><trkpt lat="46.066189963345074" lon="12.55935033848587"><ele>199.0</ele><time>2026-04-25T12:34:29Z</time></trkpt><trkpt lat="46.066206393164286" lon="12.559438606857432"><ele>199.16666666666666</ele><time>2026-04-25T12:34:36Z</time></trkpt><trkpt lat="46.06619945035866" lon="12.559537293988157"><ele>199.33333333333331</ele><time>2026-04-25T12:34:57.001Z</time></trkpt><trkpt lat="46.06611010086305" lon="12.559686579911165"><ele>199.5</ele><time>2026-04-25T12:35:41.001Z</time></trkpt><trkpt lat="46.06615719923716" lon="12.559763675117688"><ele>199.66666666666669</ele><time>2026-04-25T12:35:48Z</time></trkpt><trkpt lat="46.06615026826128" lon="12.559866436808498"><ele>199.83333333333334</ele><time>2026-04-25T12:35:54.999Z</time></trkpt><trkpt lat="46.06614973569938" lon="12.55996937940123"><ele>200.0</ele><time>2026-04-25T12:36:01Z</time></trkpt><trkpt lat="46.06613598899872" lon="12.560072859667356"><ele>200.00000000000003</ele><time>2026-04-25T12:36:10Z</time></trkpt><trkpt lat="46.06610335409192" lon="12.56015614335538"><ele>200.0</ele><time>2026-04-25T12:36:16Z</time></trkpt><trkpt lat="46.0660923026116" lon="12.560246468424966"><ele>200.0</ele><time>2026-04-25T12:36:20Z</time></trkpt><trkpt lat="46.06610125277622" lon="12.560346548740245"><ele>200.0</ele><time>2026-04-25T12:36:28Z</time></trkpt><trkpt lat="46.066125251259336" lon="12.560435159076956"><ele>200.0</ele><time>2026-04-25T12:36:34Z</time></trkpt><trkpt lat="46.066130170872285" lon="12.560526690123856"><ele>200.00000000000003</ele><time>2026-04-25T12:36:41Z</time></trkpt><trkpt lat="46.06616795659385" lon="12.56060334679992"><ele>200.0</ele><time>2026-04-25T12:36:46Z</time></trkpt><trkpt lat="46.06619082771882" lon="12.560693395319726"><ele>199.71428571428572</ele><time>2026-04-25T12:36:52Z</time></trkpt><trkpt lat="46.06622162640522" lon="12.560779352090258"><ele>199.42857142857144</ele><time>2026-04-25T12:36:57.001Z</time></trkpt><trkpt lat="46.06624524043014" lon="12.560864694081797"><ele>199.14285714285717</ele><time>2026-04-25T12:37:01.001Z</time></trkpt><trkpt lat="46.06627132617044" lon="12.560953849254119"><ele>198.85714285714286</ele><time>2026-04-25T12:37:08.001Z</time></trkpt><trkpt lat="46.0662990122712" lon="12.561047626622559"><ele>198.57142857142856</ele><time>2026-04-25T12:37:14.001Z</time></trkpt><trkpt lat="46.066296772334454" lon="12.561141138755934"><ele>198.2857142857143</ele><time>2026-04-25T12:37:20.001Z</time></trkpt><trkpt lat="46.06626614228118" lon="12.561232126092348"><ele>198.0</ele><time>2026-04-25T12:37:28.001Z</time></trkpt><trkpt lat="46.06620158518082" lon="12.56128286721649"><ele>197.0</ele><time>2026-04-25T12:37:33.001Z</time></trkpt><trkpt lat="46.06614578624296" lon="12.561332619685501"><ele>196.0</ele><time>2026-04-25T12:37:37.001Z</time></trkpt><trkpt lat="46.06607675170104" lon="12.5613927259382"><ele>195.0</ele><time>2026-04-25T12:37:43.001Z</time></trkpt><trkpt lat="46.066046706276595" lon="12.561498243821626"><ele>194.0</ele><time>2026-04-25T12:37:50.001Z</time></trkpt><trkpt lat="46.06605372562429" lon="12.561594196335044"><ele>193.0</ele><time>2026-04-25T12:37:58Z</time></trkpt><trkpt lat="46.066079233116724" lon="12.561689765259162"><ele>192.0</ele><time>2026-04-25T12:38:05Z</time></trkpt><trkpt lat="46.066104370188995" lon="12.561782425217503"><ele>191.0</ele><time>2026-04-25T12:38:12Z</time></trkpt><trkpt lat="46.0661578775938" lon="12.561857178167097"><ele>191.0</ele><time>2026-04-25T12:38:22.001Z</time></trkpt><trkpt lat="46.06620565318317" lon="12.561946670201918"><ele>191.0</ele><time>2026-04-25T12:38:39.001Z</time></trkpt><trkpt lat="46.066220996202446" lon="12.56203516797023"><ele>191.0</ele><time>2026-04-25T12:39:19.001Z</time></trkpt><trkpt lat="46.06625598343157" lon="12.562136022559283"><ele>191.0</ele><time>2026-04-25T12:39:30.001Z</time></trkpt><trkpt lat="46.06621890464009" lon="12.562230575158843"><ele>191.0</ele><time>2026-04-25T12:39:37.001Z</time></trkpt><trkpt lat="46.06617150076942" lon="12.56231158647658"><ele>191.0</ele><time>2026-04-25T12:39:44.001Z</time></trkpt><trkpt lat="46.06620957425094" lon="12.56238514044088"><ele>191.0</ele><time>2026-04-25T12:39:54.002Z</time></trkpt><trkpt lat="46.066252371964026" lon="12.562465169705685"><ele>190.5</ele><time>2026-04-25T12:40:00.001Z</time></trkpt><trkpt lat="46.0662998352788" lon="12.562536966497088"><ele>190.0</ele><time>2026-04-25T12:40:07.001Z</time></trkpt><trkpt lat="46.066357287306815" lon="12.562679945040498"><ele>189.5</ele><time>2026-04-25T12:40:18.001Z</time></trkpt><trkpt lat="46.06636577103562" lon="12.562776527499322"><ele>189.0</ele><time>2026-04-25T12:40:25.001Z</time></trkpt><trkpt lat="46.06641799899801" lon="12.562850728028545"><ele>188.5</ele><time>2026-04-25T12:40:32.001Z</time></trkpt><trkpt lat="46.06649268507755" lon="12.56286533771896"><ele>188.0</ele><time>2026-04-25T12:40:43.001Z</time></trkpt><trkpt lat="46.06654862503559" lon="12.562939681011157"><ele>187.85714285714286</ele><time>2026-04-25T12:40:50.001Z</time></trkpt><trkpt lat="46.06657964390339" lon="12.563048000263107"><ele>187.71428571428572</ele><time>2026-04-25T12:40:55.001Z</time></trkpt><trkpt lat="46.066604903419105" lon="12.563141900852832"><ele>187.57142857142856</ele><time>2026-04-25T12:41:00.001Z</time></trkpt><trkpt lat="46.06656204817683" lon="12.56321839040911"><ele>187.42857142857144</ele><time>2026-04-25T12:41:05.001Z</time></trkpt><trkpt lat="46.06655361335722" lon="12.563318597299586"><ele>187.2857142857143</ele><time>2026-04-25T12:41:11.001Z</time></trkpt><trkpt lat="46.06655002975891" lon="12.563420517921559"><ele>187.14285714285714</ele><time>2026-04-25T12:41:18.001Z</time></trkpt><trkpt lat="46.06657898942146" lon="12.563520754351572"><ele>187.0</ele><time>2026-04-25T12:41:24.001Z</time></trkpt><trkpt lat="46.0666161544607" lon="12.563614579723463"><ele>186.42857142857142</ele><time>2026-04-25T12:41:33.001Z</time></trkpt><trkpt lat="46.06657459015777" lon="12.563689997161706"><ele>185.85714285714286</ele><time>2026-04-25T12:41:42.001Z</time></trkpt><trkpt lat="46.06657132036251" lon="12.563792555812501"><ele>185.28571428571428</ele><time>2026-04-25T12:41:48.001Z</time></trkpt><trkpt lat="46.06658714190951" lon="12.563881802585094"><ele>184.71428571428572</ele><time>2026-04-25T12:41:54.001Z</time></trkpt><trkpt lat="46.066613506081076" lon="12.563975838795185"><ele>184.14285714285717</ele><time>2026-04-25T12:41:59.001Z</time></trkpt><trkpt lat="46.0666879833669" lon="12.563950819845315"><ele>183.57142857142858</ele><time>2026-04-25T12:42:31.001Z</time></trkpt><trkpt lat="46.066742429398666" lon="12.563900092127174"><ele>183.0</ele><time>2026-04-25T12:42:40.001Z</time></trkpt><trkpt lat="46.06678852414825" lon="12.56382907120187"><ele>182.57142857142858</ele><time>2026-04-25T12:42:48.001Z</time></trkpt><trkpt lat="46.066855298755094" lon="12.563766251933965"><ele>182.14285714285717</ele><time>2026-04-25T12:42:58.001Z</time></trkpt><trkpt lat="46.06689881934757" lon="12.563677893075"><ele>181.71428571428572</ele><time>2026-04-25T12:43:10.001Z</time></trkpt><trkpt lat="46.066920665430004" lon="12.56358871897227"><ele>181.28571428571428</ele><time>2026-04-25T12:43:18.001Z</time></trkpt><trkpt lat="46.06692150631033" lon="12.563495622626524"><ele>180.85714285714286</ele><time>2026-04-25T12:43:29.001Z</time></trkpt><trkpt lat="46.06688908197057" lon="12.563409558774097"><ele>180.42857142857142</ele><time>2026-04-25T12:43:36.001Z</time></trkpt><trkpt lat="46.06688188221974" lon="12.563292459809615"><ele>180.0</ele><time>2026-04-25T12:44:33.001Z</time></trkpt><trkpt lat="46.06686697298278" lon="12.563197493395409"><ele>181.16666666666666</ele><time>2026-04-25T12:44:44.001Z</time></trkpt><trkpt lat="46.06681661287992" lon="12.563022542214886"><ele>182.33333333333334</ele><time>2026-04-25T12:45:05.001Z</time></trkpt><trkpt lat="46.066851499615616" lon="12.562941515732986"><ele>183.5</ele><time>2026-04-25T12:45:15.001Z</time></trkpt><trkpt lat="46.06686176155174" lon="12.56284879379783"><ele>184.66666666666669</ele><time>2026-04-25T12:45:24.001Z</time></trkpt><trkpt lat="46.06685356871097" lon="12.562754212042266"><ele>185.83333333333334</ele><time>2026-04-25T12:45:31.001Z</time></trkpt><trkpt lat="46.066824417261245" lon="12.562667670872221"><ele>187.0</ele><time>2026-04-25T12:45:36.001Z</time></trkpt><trkpt lat="46.06687054562473" lon="12.56260185976451"><ele>187.85714285714286</ele><time>2026-04-25T12:45:42.001Z</time></trkpt><trkpt lat="46.06691667166152" lon="12.562517899058214"><ele>188.71428571428572</ele><time>2026-04-25T12:45:47.001Z</time></trkpt><trkpt lat="46.06695576384976" lon="12.562439562641554"><ele>189.57142857142858</ele><time>2026-04-25T12:45:55.001Z</time></trkpt><trkpt lat="46.066985803529455" lon="12.56235960025816"><ele>190.42857142857144</ele><time>2026-04-25T12:46:03.001Z</time></trkpt><trkpt lat="46.067017517778226" lon="12.562270510792569"><ele>191.28571428571428</ele><time>2026-04-25T12:46:12.001Z</time></trkpt><trkpt lat="46.06706071862958" lon="12.562201567139265"><ele>192.14285714285717</ele><time>2026-04-25T12:46:20.001Z</time></trkpt><trkpt lat="46.06711021361172" lon="12.562134568351253"><ele>193.0</ele><time>2026-04-25T12:46:28.001Z</time></trkpt><trkpt lat="46.06716475607865" lon="12.562079244056227"><ele>193.57142857142858</ele><time>2026-04-25T12:46:40.001Z</time></trkpt><trkpt lat="46.06720599187996" lon="12.562004827494958"><ele>194.14285714285714</ele><time>2026-04-25T12:46:50.001Z</time></trkpt><trkpt lat="46.06723558721309" lon="12.56191340686176"><ele>194.71428571428572</ele><time>2026-04-25T12:47:05.001Z</time></trkpt><trkpt lat="46.067265091999225" lon="12.561831272495398"><ele>195.28571428571428</ele><time>2026-04-25T12:47:14.001Z</time></trkpt><trkpt lat="46.06728615069378" lon="12.5617399954581"><ele>195.85714285714286</ele><time>2026-04-25T12:47:38.001Z</time></trkpt><trkpt lat="46.0672921583683" lon="12.561640138540687"><ele>196.42857142857144</ele><time>2026-04-25T12:47:48.001Z</time></trkpt><trkpt lat="46.06735808682363" lon="12.561581308542289"><ele>197.0</ele><time>2026-04-25T12:48:17.001Z</time></trkpt><trkpt lat="46.06736608493752" lon="12.561480003494419"><ele>197.0</ele><time>2026-04-25T12:48:29Z</time></trkpt><trkpt lat="46.06738369402533" lon="12.561383816995038"><ele>197.0</ele><time>2026-04-25T12:48:41Z</time></trkpt><trkpt lat="46.0673936154174" lon="12.561289461464083"><ele>197.0</ele><time>2026-04-25T12:48:58Z</time></trkpt><trkpt lat="46.06740678961328" lon="12.561198286231992"><ele>197.0</ele><time>2026-04-25T12:49:06Z</time></trkpt><trkpt lat="46.06740919375828" lon="12.561096762619988"><ele>197.0</ele><time>2026-04-25T12:49:14Z</time></trkpt><trkpt lat="46.067408991780134" lon="12.561004671957537"><ele>197.0</ele><time>2026-04-25T12:49:25Z</time></trkpt><trkpt lat="46.06744074042586" lon="12.560924820932044"><ele>197.0</ele><time>2026-04-25T12:49:34Z</time></trkpt><trkpt lat="46.06746922601863" lon="12.560838190588704"><ele>199.71428571428572</ele><time>2026-04-25T12:49:42Z</time></trkpt><trkpt lat="46.0674827615776" lon="12.560731439516253"><ele>202.42857142857144</ele><time>2026-04-25T12:49:53.001Z</time></trkpt><trkpt lat="46.067516957588516" lon="12.560643603486085"><ele>205.14285714285714</ele><time>2026-04-25T12:50:05.001Z</time></trkpt><trkpt lat="46.067565194385615" lon="12.560584849170656"><ele>207.85714285714286</ele><time>2026-04-25T12:50:13.001Z</time></trkpt><trkpt lat="46.067623755929056" lon="12.560526302727087"><ele>210.57142857142856</ele><time>2026-04-25T12:50:19.001Z</time></trkpt><trkpt lat="46.06762920121535" lon="12.560435667971998"><ele>213.28571428571428</ele><time>2026-04-25T12:50:28.001Z</time></trkpt><trkpt lat="46.06759403078911" lon="12.560350453143661"><ele>216.0</ele><time>2026-04-25T12:50:41Z</time></trkpt><trkpt lat="46.06754158330211" lon="12.560274850055373"><ele>217.14285714285714</ele><time>2026-04-25T12:50:52Z</time></trkpt><trkpt lat="46.06747900544917" lon="12.56023610802034"><ele>218.28571428571428</ele><time>2026-04-25T12:50:57Z</time></trkpt><trkpt lat="46.0674798654335" lon="12.560144288357675"><ele>219.42857142857144</ele><time>2026-04-25T12:51:06Z</time></trkpt><trkpt lat="46.06750924986158" lon="12.560058110079384"><ele>220.57142857142856</ele><time>2026-04-25T12:51:15Z</time></trkpt><trkpt lat="46.06755404316551" lon="12.559977216104617"><ele>221.71428571428572</ele><time>2026-04-25T12:51:23Z</time></trkpt><trkpt lat="46.067555963044576" lon="12.559877985685773"><ele>222.85714285714286</ele><time>2026-04-25T12:51:30Z</time></trkpt><trkpt lat="46.06753439901839" lon="12.559788506433014"><ele>224.0</ele><time>2026-04-25T12:51:35Z</time></trkpt><trkpt lat="46.06750928412338" lon="12.55970079662927"><ele>224.0</ele><time>2026-04-25T12:51:41Z</time></trkpt><trkpt lat="46.0674802514099" lon="12.559616389921588"><ele>224.0</ele><time>2026-04-25T12:51:49Z</time></trkpt><trkpt lat="46.06742242354228" lon="12.55955562738438"><ele>224.0</ele><time>2026-04-25T12:51:58Z</time></trkpt><trkpt lat="46.06738010096099" lon="12.55948568754781"><ele>224.0</ele><time>2026-04-25T12:52:04Z</time></trkpt><trkpt lat="46.06731701768456" lon="12.559473767113113"><ele>224.0</ele><time>2026-04-25T12:52:13Z</time></trkpt><trkpt lat="46.06725537973869" lon="12.55942912034992"><ele>224.0</ele><time>2026-04-25T12:52:19Z</time></trkpt><trkpt lat="46.06719722673786" lon="12.559389730375354"><ele>224.0</ele><time>2026-04-25T12:52:24Z</time></trkpt><trkpt lat="46.067113715540565" lon="12.559291243744989"><ele>222.28571428571428</ele><time>2026-04-25T12:52:49.999Z</time></trkpt><trkpt lat="46.06704487291441" lon="12.559297198503593"><ele>220.57142857142856</ele><time>2026-04-25T12:53:08Z</time></trkpt><trkpt lat="46.06696045636531" lon="12.559305099494043"><ele>218.85714285714286</ele><time>2026-04-25T12:53:16Z</time></trkpt><trkpt lat="46.066894177491655" lon="12.559349294651138"><ele>217.14285714285714</ele><time>2026-04-25T12:53:32Z</time></trkpt><trkpt lat="46.066837978230176" lon="12.559300885939145"><ele>215.42857142857142</ele><time>2026-04-25T12:53:39Z</time></trkpt><trkpt lat="46.066774261269614" lon="12.55930198057896"><ele>213.71428571428572</ele><time>2026-04-25T12:53:45Z</time></trkpt><trkpt lat="46.06671475206456" lon="12.559244302230349"><ele>212.0</ele><time>2026-04-25T12:53:53Z</time></trkpt><trkpt lat="46.066659375018254" lon="12.559172464559039"><ele>210.14285714285714</ele><time>2026-04-25T12:54:03Z</time></trkpt><trkpt lat="46.06658334390084" lon="12.55915323313261"><ele>208.28571428571428</ele><time>2026-04-25T12:54:10Z</time></trkpt><trkpt lat="46.066529525225114" lon="12.559104489915915"><ele>206.42857142857142</ele><time>2026-04-25T12:54:16Z</time></trkpt><trkpt lat="46.066473530385785" lon="12.559061897506496"><ele>204.57142857142856</ele><time>2026-04-25T12:54:21Z</time></trkpt><trkpt lat="46.06642874719624" lon="12.55898531154276"><ele>202.71428571428572</ele><time>2026-04-25T12:54:27Z</time></trkpt><trkpt lat="46.06636266324622" lon="12.558982106589326"><ele>200.85714285714283</ele><time>2026-04-25T12:54:33Z</time></trkpt><trkpt lat="46.06629666359885" lon="12.558959822454929"><ele>199.0</ele><time>2026-04-25T12:54:41Z</time></trkpt><trkpt lat="46.066229647162054" lon="12.558922661020704"><ele>198.99999999999997</ele><time>2026-04-25T12:54:47Z</time></trkpt><trkpt lat="46.06615947168408" lon="12.558885747675047"><ele>199.0</ele><time>2026-04-25T12:54:51.999Z</time></trkpt><trkpt lat="46.066097123427625" lon="12.558859384114465"><ele>199.0</ele><time>2026-04-25T12:54:56.999Z</time></trkpt><trkpt lat="46.06603362597019" lon="12.558816170196918"><ele>199.0</ele><time>2026-04-25T12:55:01.999Z</time></trkpt><trkpt lat="46.065959546940206" lon="12.5588055507013"><ele>199.0</ele><time>2026-04-25T12:55:11Z</time></trkpt><trkpt lat="46.06591165402973" lon="12.558740744033926"><ele>198.99999999999997</ele><time>2026-04-25T12:55:32Z</time></trkpt><trkpt lat="46.06585602820527" lon="12.55868901408859"><ele>199.0</ele><time>2026-04-25T12:55:57Z</time></trkpt><trkpt lat="46.0658616576306" lon="12.558590457921454"><ele>199.99999999999997</ele><time>2026-04-25T12:56:18Z</time></trkpt><trkpt lat="46.06589276665172" lon="12.558457341876686"><ele>201.0</ele><time>2026-04-25T12:56:38Z</time></trkpt><trkpt lat="46.06597253814833" lon="12.55840499987743"><ele>202.0</ele><time>2026-04-25T12:56:57Z</time></trkpt><trkpt lat="46.06604494425811" lon="12.558363583958853"><ele>203.0</ele><time>2026-04-25T12:57:09Z</time></trkpt><trkpt lat="46.06603937880795" lon="12.55826785051657"><ele>203.99999999999997</ele><time>2026-04-25T12:57:15Z</time></trkpt><trkpt lat="46.06599843029654" lon="12.55818428724475"><ele>205.0</ele><time>2026-04-25T12:57:24Z</time></trkpt><trkpt lat="46.065969393892324" lon="12.558094002333505"><ele>205.0</ele><time>2026-04-25T12:57:34Z</time></trkpt><trkpt lat="46.06596199043609" lon="12.558003794845398"><ele>205.0</ele><time>2026-04-25T12:57:44Z</time></trkpt><trkpt lat="46.06592556017696" lon="12.557926514281915"><ele>205.0</ele><time>2026-04-25T12:57:52Z</time></trkpt><trkpt lat="46.0659229442437" lon="12.557831294453772"><ele>205.0</ele><time>2026-04-25T12:59:07Z</time></trkpt><trkpt lat="46.065883101975096" lon="12.557736025078372"><ele>205.0</ele><time>2026-04-25T12:59:39Z</time></trkpt><trkpt lat="46.06582674895699" lon="12.55767864540803"><ele>205.0</ele><time>2026-04-25T13:00:01Z</time></trkpt><trkpt lat="46.06575740549191" lon="12.55767687037664"><ele>205.0</ele><time>2026-04-25T13:00:10Z</time></trkpt><trkpt lat="46.065706922556394" lon="12.557531703769635"><ele>205.14285714285714</ele><time>2026-04-25T13:00:48.001Z</time></trkpt><trkpt lat="46.065748467988676" lon="12.557459531910366"><ele>205.28571428571428</ele><time>2026-04-25T13:00:59Z</time></trkpt><trkpt lat="46.06576486107035" lon="12.557365655801126"><ele>205.42857142857142</ele><time>2026-04-25T13:01:18Z</time></trkpt><trkpt lat="46.06579050850189" lon="12.557276391662493"><ele>205.57142857142856</ele><time>2026-04-25T13:01:28Z</time></trkpt><trkpt lat="46.06581138807456" lon="12.557189852428621"><ele>205.71428571428572</ele><time>2026-04-25T13:01:35Z</time></trkpt><trkpt lat="46.065780574563654" lon="12.557110180551605"><ele>205.85714285714283</ele><time>2026-04-25T13:01:43Z</time></trkpt><trkpt lat="46.06574891617018" lon="12.55701202018385"><ele>206.0</ele><time>2026-04-25T13:01:59Z</time></trkpt><trkpt lat="46.06564539472847" lon="12.556958163657962"><ele>204.57142857142856</ele><time>2026-04-25T13:02:16Z</time></trkpt><trkpt lat="46.0655776410349" lon="12.556958738889788"><ele>203.14285714285714</ele><time>2026-04-25T13:02:22Z</time></trkpt><trkpt lat="46.06550063205368" lon="12.556969094879097"><ele>201.71428571428572</ele><time>2026-04-25T13:02:44Z</time></trkpt><trkpt lat="46.06543723963527" lon="12.556952142263025"><ele>200.28571428571428</ele><time>2026-04-25T13:03:08Z</time></trkpt><trkpt lat="46.065519529260435" lon="12.556998696763504"><ele>198.85714285714286</ele><time>2026-04-25T13:04:00Z</time></trkpt><trkpt lat="46.06558374424083" lon="12.557027828169451"><ele>197.42857142857142</ele><time>2026-04-25T13:04:07Z</time></trkpt><trkpt lat="46.06565211448903" lon="12.557077720624742"><ele>196.0</ele><time>2026-04-25T13:04:23Z</time></trkpt><trkpt lat="46.06563448909615" lon="12.557166915913308"><ele>196.0</ele><time>2026-04-25T13:04:27Z</time></trkpt><trkpt lat="46.0655962331972" lon="12.557249198004667"><ele>196.0</ele><time>2026-04-25T13:04:36Z</time></trkpt><trkpt lat="46.06552728583572" lon="12.557240916943805"><ele>196.0</ele><time>2026-04-25T13:04:48Z</time></trkpt><trkpt lat="46.06552114283318" lon="12.557359880697035"><ele>196.0</ele><time>2026-04-25T13:05:23Z</time></trkpt><trkpt lat="46.06547894004933" lon="12.55743445410592"><ele>196.0</ele><time>2026-04-25T13:05:37Z</time></trkpt><trkpt lat="46.065458909464915" lon="12.557523331291415"><ele>196.0</ele><time>2026-04-25T13:05:49Z</time></trkpt><trkpt lat="46.065391889295924" lon="12.557569464634273"><ele>196.0</ele><time>2026-04-25T13:07:02.001Z</time></trkpt><trkpt lat="46.06553671240132" lon="12.557603727800249"><ele>195.99999999999997</ele><time>2026-04-25T13:08:51.001Z</time></trkpt><trkpt lat="46.065537712614464" lon="12.557711359054721"><ele>196.0</ele><time>2026-04-25T13:08:57.001Z</time></trkpt><trkpt lat="46.06554322143706" lon="12.557858645495589"><ele>196.0</ele><time>2026-04-25T13:09:12.001Z</time></trkpt><trkpt lat="46.06553582040609" lon="12.557974471408782"><ele>196.0</ele><time>2026-04-25T13:09:27Z</time></trkpt><trkpt lat="46.06561560998785" lon="12.557991293097139"><ele>195.99999999999997</ele><time>2026-04-25T13:09:32Z</time></trkpt><trkpt lat="46.065675913858875" lon="12.55803738947282"><ele>196.0</ele><time>2026-04-25T13:09:39Z</time></trkpt><trkpt lat="46.06573250651924" lon="12.558086195855374"><ele>196.14285714285714</ele><time>2026-04-25T13:09:45Z</time></trkpt><trkpt lat="46.06575570895157" lon="12.558178591289396"><ele>196.28571428571428</ele><time>2026-04-25T13:09:52Z</time></trkpt><trkpt lat="46.06570352236812" lon="12.55824359909593"><ele>196.42857142857144</ele><time>2026-04-25T13:09:59Z</time></trkpt><trkpt lat="46.06563654109762" lon="12.558313569397553"><ele>196.57142857142856</ele><time>2026-04-25T13:10:27Z</time></trkpt><trkpt lat="46.065574451790546" lon="12.55827977047264"><ele>196.71428571428572</ele><time>2026-04-25T13:10:41Z</time></trkpt><trkpt lat="46.06551193333499" lon="12.55822994824642"><ele>196.85714285714286</ele><time>2026-04-25T13:10:51Z</time></trkpt><trkpt lat="46.06547108346245" lon="12.558148313882661"><ele>197.0</ele><time>2026-04-25T13:10:57Z</time></trkpt><trkpt lat="46.0654494018635" lon="12.5580437290764"><ele>197.0</ele><time>2026-04-25T13:11:04Z</time></trkpt><trkpt lat="46.0654749112637" lon="12.557927447207721"><ele>197.0</ele><time>2026-04-25T13:11:21.001Z</time></trkpt><trkpt lat="46.0654126683382" lon="12.55787906431539"><ele>197.0</ele><time>2026-04-25T13:13:35Z</time></trkpt><trkpt lat="46.065342533368636" lon="12.557854525201275"><ele>197.0</ele><time>2026-04-25T13:13:41Z</time></trkpt><trkpt lat="46.065278728266584" lon="12.557850270125124"><ele>197.0</ele><time>2026-04-25T13:13:45Z</time></trkpt><trkpt lat="46.06521630594086" lon="12.55778903161084"><ele>197.0</ele><time>2026-04-25T13:13:52Z</time></trkpt><trkpt lat="46.06518468821251" lon="12.557695972129657"><ele>197.0</ele><time>2026-04-25T13:13:58Z</time></trkpt><trkpt lat="46.0651760018929" lon="12.557575123977854"><ele>196.83333333333334</ele><time>2026-04-25T13:14:11Z</time></trkpt><trkpt lat="46.06517294574861" lon="12.557463410557478"><ele>196.66666666666669</ele><time>2026-04-25T13:14:20Z</time></trkpt><trkpt lat="46.06522968874152" lon="12.557422999694"><ele>196.5</ele><time>2026-04-25T13:14:28Z</time></trkpt><trkpt lat="46.065279867162374" lon="12.557363392333352"><ele>196.33333333333331</ele><time>2026-04-25T13:14:36Z</time></trkpt><trkpt lat="46.065271473101056" lon="12.557267959114796"><ele>196.16666666666666</ele><time>2026-04-25T13:14:43Z</time></trkpt><trkpt lat="46.06520819172886" lon="12.557194012194225"><ele>196.0</ele><time>2026-04-25T13:15:29.001Z</time></trkpt><trkpt lat="46.06516146261354" lon="12.557061708135826"><ele>194.83333333333331</ele><time>2026-04-25T13:16:05Z</time></trkpt><trkpt lat="46.06518811229397" lon="12.556952052507073"><ele>193.66666666666666</ele><time>2026-04-25T13:16:17Z</time></trkpt><trkpt lat="46.0651526286803" lon="12.556805064332305"><ele>192.5</ele><time>2026-04-25T13:17:11Z</time></trkpt><trkpt lat="46.06516778365893" lon="12.556699053393507"><ele>191.33333333333331</ele><time>2026-04-25T13:17:23.001Z</time></trkpt><trkpt lat="46.06512677163733" lon="12.556623360482671"><ele>190.16666666666666</ele><time>2026-04-25T13:17:31.001Z</time></trkpt><trkpt lat="46.06511557839575" lon="12.556531507344026"><ele>189.0</ele><time>2026-04-25T13:17:40.001Z</time></trkpt><trkpt lat="46.06509254755752" lon="12.556440532383716"><ele>189.0</ele><time>2026-04-25T13:17:51Z</time></trkpt><trkpt lat="46.065049664442896" lon="12.55633599756318"><ele>189.0</ele><time>2026-04-25T13:18:00Z</time></trkpt><trkpt lat="46.06503166292036" lon="12.55623070724201"><ele>189.0</ele><time>2026-04-25T13:18:07Z</time></trkpt><trkpt lat="46.065042705362586" lon="12.556138618466596"><ele>189.0</ele><time>2026-04-25T13:18:13Z</time></trkpt><trkpt lat="46.06504833591692" lon="12.556042600005853"><ele>189.0</ele><time>2026-04-25T13:18:18Z</time></trkpt><trkpt lat="46.065056799920534" lon="12.555941665198745"><ele>189.0</ele><time>2026-04-25T13:18:24Z</time></trkpt><trkpt lat="46.06509854216612" lon="12.555873166667604"><ele>189.0</ele><time>2026-04-25T13:18:30Z</time></trkpt><trkpt lat="46.06512292137887" lon="12.55577882214184"><ele>188.42857142857142</ele><time>2026-04-25T13:18:37Z</time></trkpt><trkpt lat="46.065070516401384" lon="12.55569688382253"><ele>187.85714285714286</ele><time>2026-04-25T13:18:54Z</time></trkpt><trkpt lat="46.06502733854266" lon="12.555626954715148"><ele>187.28571428571428</ele><time>2026-04-25T13:19:03Z</time></trkpt><trkpt lat="46.064983184896235" lon="12.55553915664425"><ele>186.71428571428572</ele><time>2026-04-25T13:19:10Z</time></trkpt><trkpt lat="46.06494588268158" lon="12.555454971696676"><ele>186.14285714285714</ele><time>2026-04-25T13:19:16.001Z</time></trkpt><trkpt lat="46.06488550790157" lon="12.555420299618467"><ele>185.57142857142856</ele><time>2026-04-25T13:19:22.001Z</time></trkpt><trkpt lat="46.0648236039129" lon="12.555371655727415"><ele>185.0</ele><time>2026-04-25T13:19:28.001Z</time></trkpt><trkpt lat="46.064780460671166" lon="12.55529930261042"><ele>183.42857142857142</ele><time>2026-04-25T13:19:36.001Z</time></trkpt><trkpt lat="46.06471932910387" lon="12.555233811755514"><ele>181.85714285714286</ele><time>2026-04-25T13:19:45.001Z</time></trkpt><trkpt lat="46.06467411111829" lon="12.555155652347793"><ele>180.28571428571428</ele><time>2026-04-25T13:20:00Z</time></trkpt><trkpt lat="46.06460515249798" lon="12.555198796932462"><ele>178.71428571428572</ele><time>2026-04-25T13:20:08Z</time></trkpt><trkpt lat="46.06457817210261" lon="12.555114952104155"><ele>177.14285714285714</ele><time>2026-04-25T13:20:23Z</time></trkpt><trkpt lat="46.064537620659415" lon="12.555039828128958"><ele>175.57142857142856</ele><time>2026-04-25T13:20:31Z</time></trkpt><trkpt lat="46.06447511433257" lon="12.554996893886784"><ele>174.0</ele><time>2026-04-25T13:20:37Z</time></trkpt><trkpt lat="46.06445685846872" lon="12.554909652953983"><ele>174.0</ele><time>2026-04-25T13:20:43Z</time></trkpt><trkpt lat="46.064464265310185" lon="12.55481813313179"><ele>174.0</ele><time>2026-04-25T13:20:48Z</time></trkpt><trkpt lat="46.064449961703815" lon="12.55471437140754"><ele>174.0</ele><time>2026-04-25T13:20:54Z</time></trkpt><trkpt lat="46.064482455095465" lon="12.55463005058995"><ele>174.0</ele><time>2026-04-25T13:21:01.001Z</time></trkpt><trkpt lat="46.064445045826" lon="12.55453908784435"><ele>174.0</ele><time>2026-04-25T13:21:09.001Z</time></trkpt><trkpt lat="46.064422626732956" lon="12.554453853416144"><ele>174.0</ele><time>2026-04-25T13:21:14.001Z</time></trkpt><trkpt lat="46.064400999957044" lon="12.554360324251162"><ele>174.0</ele><time>2026-04-25T13:21:20.001Z</time></trkpt><trkpt lat="46.06432377392528" lon="12.554315308601145"><ele>173.5</ele><time>2026-04-25T13:21:32.001Z</time></trkpt><trkpt lat="46.06426315743162" lon="12.55422733009815"><ele>173.0</ele><time>2026-04-25T13:21:46.001Z</time></trkpt><trkpt lat="46.06424025093714" lon="12.554090683621224"><ele>172.5</ele><time>2026-04-25T13:22:40Z</time></trkpt><trkpt lat="46.06427464434886" lon="12.554001246802635"><ele>172.0</ele><time>2026-04-25T13:22:49Z</time></trkpt><trkpt lat="46.064317019499754" lon="12.553905271146956"><ele>171.5</ele><time>2026-04-25T13:23:13.001Z</time></trkpt><trkpt lat="46.06434836066658" lon="12.553824030731366"><ele>171.0</ele><time>2026-04-25T13:23:38.001Z</time></trkpt><trkpt lat="46.06428326354491" lon="12.553836169325448"><ele>171.0</ele><time>2026-04-25T13:23:45.001Z</time></trkpt><trkpt lat="46.06416136950923" lon="12.553865624850092"><ele>171.0</ele><time>2026-04-25T13:26:33Z</time></trkpt><trkpt lat="46.0642281581325" lon="12.55384534042464"><ele>171.0</ele><time>2026-04-25T13:27:15Z</time></trkpt><trkpt lat="46.064293803657144" lon="12.553827510418655"><ele>171.0</ele><time>2026-04-25T13:27:24Z</time></trkpt><trkpt lat="46.06435925849254" lon="12.553815349454933"><ele>171.0</ele><time>2026-04-25T13:27:31Z</time></trkpt><trkpt lat="46.064398728607344" lon="12.553892464194982"><ele>171.0</ele><time>2026-04-25T13:27:38Z</time></trkpt><trkpt lat="46.064346031238976" lon="12.553946486091439"><ele>170.99999999999997</ele><time>2026-04-25T13:27:43Z</time></trkpt><trkpt lat="46.064265860771535" lon="12.55393023429528"><ele>171.0</ele><time>2026-04-25T13:28:20Z</time></trkpt><trkpt lat="46.064299667806054" lon="12.55380297403728"><ele>171.0</ele><time>2026-04-25T13:29:14Z</time></trkpt><trkpt lat="46.06423285703587" lon="12.553792568809031"><ele>171.0</ele><time>2026-04-25T13:29:32Z</time></trkpt><trkpt lat="46.06417005147761" lon="12.553831972190652"><ele>171.0</ele><time>2026-04-25T13:29:39Z</time></trkpt><trkpt lat="46.06410693941955" lon="12.553861157539602"><ele>170.99999999999997</ele><time>2026-04-25T13:29:48Z</time></trkpt><trkpt lat="46.06404784048677" lon="12.553802663211911"><ele>171.0</ele><time>2026-04-25T13:29:57Z</time></trkpt><trkpt lat="46.064006207681075" lon="12.553723337789254"><ele>170.42857142857142</ele><time>2026-04-25T13:30:08Z</time></trkpt><trkpt lat="46.06393568088369" lon="12.553733609783405"><ele>169.85714285714286</ele><time>2026-04-25T13:30:17Z</time></trkpt><trkpt lat="46.06386565375619" lon="12.553732920027258"><ele>169.28571428571428</ele><time>2026-04-25T13:30:25Z</time></trkpt><trkpt lat="46.06379388184607" lon="12.553714156835179"><ele>168.71428571428572</ele><time>2026-04-25T13:30:32Z</time></trkpt><trkpt lat="46.06372254027916" lon="12.553696720564856"><ele>168.14285714285714</ele><time>2026-04-25T13:30:36Z</time></trkpt><trkpt lat="46.06364925018937" lon="12.553680912915754"><ele>167.57142857142856</ele><time>2026-04-25T13:30:42Z</time></trkpt><trkpt lat="46.06356651348493" lon="12.553645038409678"><ele>167.0</ele><time>2026-04-25T13:30:52Z</time></trkpt><trkpt lat="46.06349841973548" lon="12.553622748307689"><ele>166.71428571428572</ele><time>2026-04-25T13:30:58Z</time></trkpt><trkpt lat="46.06343428108557" lon="12.553658308897138"><ele>166.42857142857144</ele><time>2026-04-25T13:31:06Z</time></trkpt><trkpt lat="46.06337095803287" lon="12.553647759905274"><ele>166.14285714285717</ele><time>2026-04-25T13:31:10Z</time></trkpt><trkpt lat="46.06334016589168" lon="12.553554351292048"><ele>165.85714285714286</ele><time>2026-04-25T13:31:16Z</time></trkpt><trkpt lat="46.063325745543025" lon="12.553461650705572"><ele>165.57142857142858</ele><time>2026-04-25T13:31:22Z</time></trkpt><trkpt lat="46.06331136203714" lon="12.553370129841431"><ele>165.2857142857143</ele><time>2026-04-25T13:31:28Z</time></trkpt><trkpt lat="46.06328418278094" lon="12.553281523127636"><ele>165.0</ele><time>2026-04-25T13:31:37Z</time></trkpt><trkpt lat="46.06324080551934" lon="12.553209185519465"><ele>164.42857142857144</ele><time>2026-04-25T13:31:41Z</time></trkpt><trkpt lat="46.06321449450403" lon="12.55312666487566"><ele>163.85714285714286</ele><time>2026-04-25T13:31:50Z</time></trkpt><trkpt lat="46.063160905056925" lon="12.553048437076157"><ele>163.28571428571428</ele><time>2026-04-25T13:31:56Z</time></trkpt><trkpt lat="46.063126726847884" lon="12.552969939828612"><ele>162.71428571428572</ele><time>2026-04-25T13:32:04Z</time></trkpt><trkpt lat="46.063112173297526" lon="12.552871405641028"><ele>162.14285714285714</ele><time>2026-04-25T13:32:12Z</time></trkpt><trkpt lat="46.06309040782643" lon="12.552771428571043"><ele>161.57142857142858</ele><time>2026-04-25T13:32:21Z</time></trkpt><trkpt lat="46.06309552834981" lon="12.552678622470685"><ele>161.0</ele><time>2026-04-25T13:33:04Z</time></trkpt><trkpt lat="46.063038614356564" lon="12.552632493555988"><ele>160.16666666666666</ele><time>2026-04-25T13:33:09Z</time></trkpt><trkpt lat="46.062986210627955" lon="12.552576044179755"><ele>159.33333333333331</ele><time>2026-04-25T13:33:13Z</time></trkpt><trkpt lat="46.06289671167772" lon="12.552439779568251"><ele>158.5</ele><time>2026-04-25T13:33:26Z</time></trkpt><trkpt lat="46.06287230314006" lon="12.552341269085796"><ele>157.66666666666666</ele><time>2026-04-25T13:33:33Z</time></trkpt><trkpt lat="46.06283643479818" lon="12.552257279502854"><ele>156.83333333333334</ele><time>2026-04-25T13:33:41Z</time></trkpt><trkpt lat="46.06277798994205" lon="12.552192069708344"><ele>156.0</ele><time>2026-04-25T13:33:48Z</time></trkpt><trkpt lat="46.06273906620234" lon="12.552117397599686"><ele>156.0</ele><time>2026-04-25T13:33:55Z</time></trkpt><trkpt lat="46.06267797784277" lon="12.552076145812313"><ele>156.0</ele><time>2026-04-25T13:34:05Z</time></trkpt><trkpt lat="46.062614981276134" lon="12.552047305553483"><ele>156.0</ele><time>2026-04-25T13:34:09Z</time></trkpt><trkpt lat="46.06254505598152" lon="12.552024041813011"><ele>156.0</ele><time>2026-04-25T13:34:13Z</time></trkpt><trkpt lat="46.06249009003884" lon="12.551967192418607"><ele>156.0</ele><time>2026-04-25T13:34:18Z</time></trkpt><trkpt lat="46.06247504983521" lon="12.551863132290453"><ele>156.0</ele><time>2026-04-25T13:34:26Z</time></trkpt><trkpt lat="46.06243252898021" lon="12.551784192420977"><ele>156.0</ele><time>2026-04-25T13:34:31Z</time></trkpt><trkpt lat="46.0623900923985" lon="12.551715847410156"><ele>155.57142857142858</ele><time>2026-04-25T13:34:37Z</time></trkpt><trkpt lat="46.0623245167667" lon="12.551658637997614"><ele>155.14285714285714</ele><time>2026-04-25T13:34:45Z</time></trkpt><trkpt lat="46.06226614972857" lon="12.551606700134538"><ele>154.71428571428572</ele><time>2026-04-25T13:34:50Z</time></trkpt><trkpt lat="46.06220902089283" lon="12.551568583571623"><ele>154.28571428571428</ele><time>2026-04-25T13:35:00Z</time></trkpt><trkpt lat="46.06214217126648" lon="12.551563861366885"><ele>153.85714285714286</ele><time>2026-04-25T13:35:05Z</time></trkpt><trkpt lat="46.06206542145593" lon="12.551592515835727"><ele>153.42857142857142</ele><time>2026-04-25T13:35:15Z</time></trkpt><trkpt lat="46.06201124710979" lon="12.551646369759954"><ele>153.0</ele><time>2026-04-25T13:35:21Z</time></trkpt><trkpt lat="46.06198681421323" lon="12.551731359646022"><ele>153.0</ele><time>2026-04-25T13:35:27Z</time></trkpt><trkpt lat="46.0620108038101" lon="12.55181729823825"><ele>153.0</ele><time>2026-04-25T13:35:35Z</time></trkpt><trkpt lat="46.061956766110214" lon="12.551873375472919"><ele>153.0</ele><time>2026-04-25T13:35:41Z</time></trkpt><trkpt lat="46.06192436402076" lon="12.551953472432968"><ele>153.0</ele><time>2026-04-25T13:35:47Z</time></trkpt><trkpt lat="46.06191824865453" lon="12.55205339524669"><ele>153.0</ele><time>2026-04-25T13:35:54Z</time></trkpt><trkpt lat="46.06190628331748" lon="12.55215608241699"><ele>153.0</ele><time>2026-04-25T13:36:00Z</time></trkpt><trkpt lat="46.061897405715634" lon="12.552264026709885"><ele>153.0</ele><time>2026-04-25T13:36:05Z</time></trkpt><trkpt lat="46.06186171235815" lon="12.552353987492483"><ele>152.71428571428572</ele><time>2026-04-25T13:36:12Z</time></trkpt><trkpt lat="46.06187408095726" lon="12.552453580143373"><ele>152.42857142857144</ele><time>2026-04-25T13:36:18Z</time></trkpt><trkpt lat="46.061871946422265" lon="12.55254678729691"><ele>152.14285714285717</ele><time>2026-04-25T13:36:24Z</time></trkpt><trkpt lat="46.06182254765515" lon="12.55246153133798"><ele>151.85714285714286</ele><time>2026-04-25T13:36:39Z</time></trkpt><trkpt lat="46.06181332877265" lon="12.552367576197792"><ele>151.57142857142858</ele><time>2026-04-25T13:36:44Z</time></trkpt><trkpt lat="46.0618078829643" lon="12.552274780561579"><ele>151.2857142857143</ele><time>2026-04-25T13:36:50Z</time></trkpt><trkpt lat="46.06180462183985" lon="12.552183642951553"><ele>151.0</ele><time>2026-04-25T13:36:55Z</time></trkpt><trkpt lat="46.06180882479869" lon="12.552089797552913"><ele>151.00000000000003</ele><time>2026-04-25T13:37:01Z</time></trkpt><trkpt lat="46.061746628183585" lon="12.552013351509741"><ele>151.0</ele><time>2026-04-25T13:37:10Z</time></trkpt><trkpt lat="46.06169069763057" lon="12.552073509386888"><ele>151.0</ele><time>2026-04-25T13:37:14Z</time></trkpt><trkpt lat="46.06161935137764" lon="12.55208532084943"><ele>151.0</ele><time>2026-04-25T13:37:23Z</time></trkpt><trkpt lat="46.061549983378896" lon="12.552121622705632"><ele>151.0</ele><time>2026-04-25T13:37:32Z</time></trkpt><trkpt lat="46.06152582028847" lon="12.552210118776426"><ele>151.00000000000003</ele><time>2026-04-25T13:37:40Z</time></trkpt><trkpt lat="46.06152588506089" lon="12.552320710288312"><ele>151.0</ele><time>2026-04-25T13:37:47Z</time></trkpt><trkpt lat="46.0615516470819" lon="12.55241017483984"><ele>151.00000000000003</ele><time>2026-04-25T13:37:52Z</time></trkpt><trkpt lat="46.06158558746777" lon="12.552487513855393"><ele>151.0</ele><time>2026-04-25T13:37:57Z</time></trkpt><trkpt lat="46.06162960839091" lon="12.552557098327304"><ele>151.0</ele><time>2026-04-25T13:38:05Z</time></trkpt><trkpt lat="46.06167012261275" lon="12.552640381036587"><ele>151.0</ele><time>2026-04-25T13:38:10Z</time></trkpt><trkpt lat="46.06171077040976" lon="12.552712864079501"><ele>151.0</ele><time>2026-04-25T13:38:15Z</time></trkpt><trkpt lat="46.06173621461124" lon="12.55280244194973"><ele>151.00000000000003</ele><time>2026-04-25T13:38:23Z</time></trkpt><trkpt lat="46.061738608991526" lon="12.552900254964579"><ele>151.0</ele><time>2026-04-25T13:38:32Z</time></trkpt><trkpt lat="46.06170894449491" lon="12.552983646528052"><ele>151.00000000000003</ele><time>2026-04-25T13:38:37Z</time></trkpt><trkpt lat="46.06169499578674" lon="12.553075017096532"><ele>151.0</ele><time>2026-04-25T13:38:48Z</time></trkpt><trkpt lat="46.06169354706201" lon="12.55317208586687"><ele>151.0</ele><time>2026-04-25T13:38:56Z</time></trkpt><trkpt lat="46.06166027445074" lon="12.553259286291595"><ele>151.0</ele><time>2026-04-25T13:39:07Z</time></trkpt><trkpt lat="46.06163049029237" lon="12.553356499219472"><ele>151.0</ele><time>2026-04-25T13:39:14Z</time></trkpt><trkpt lat="46.061580353081524" lon="12.553422073491584"><ele>151.00000000000003</ele><time>2026-04-25T13:40:03Z</time></trkpt><trkpt lat="46.06155737252619" lon="12.553510849442729"><ele>151.0</ele><time>2026-04-25T13:40:11Z</time></trkpt><trkpt lat="46.06157428378001" lon="12.553610026971587"><ele>150.83333333333334</ele><time>2026-04-25T13:40:22Z</time></trkpt><trkpt lat="46.06158320473931" lon="12.553702023935601"><ele>150.66666666666669</ele><time>2026-04-25T13:40:30Z</time></trkpt><trkpt lat="46.06157387341872" lon="12.553793143468313"><ele>150.5</ele><time>2026-04-25T13:40:37Z</time></trkpt><trkpt lat="46.06157423331377" lon="12.553891409640482"><ele>150.33333333333334</ele><time>2026-04-25T13:40:42Z</time></trkpt><trkpt lat="46.06158893166782" lon="12.553999788445472"><ele>150.16666666666666</ele><time>2026-04-25T13:40:45Z</time></trkpt><trkpt lat="46.061652108010705" lon="12.55407453961057"><ele>150.0</ele><time>2026-04-25T13:40:52Z</time></trkpt><trkpt lat="46.06170394186729" lon="12.554195169550889"><ele>149.99999999999997</ele><time>2026-04-25T13:41:04Z</time></trkpt><trkpt lat="46.061734316088064" lon="12.554284034136272"><ele>150.0</ele><time>2026-04-25T13:42:02Z</time></trkpt><trkpt lat="46.06177191445964" lon="12.554365168918695"><ele>150.0</ele><time>2026-04-25T13:42:17Z</time></trkpt><trkpt lat="46.06178722262538" lon="12.55445566166033"><ele>150.0</ele><time>2026-04-25T13:42:23Z</time></trkpt><trkpt lat="46.06179403214782" lon="12.55454680532257"><ele>150.0</ele><time>2026-04-25T13:42:28Z</time></trkpt><trkpt lat="46.06179333081177" lon="12.554648641202904"><ele>149.99999999999997</ele><time>2026-04-25T13:42:34Z</time></trkpt><trkpt lat="46.061766875706304" lon="12.55473859996313"><ele>150.0</ele><time>2026-04-25T13:42:39Z</time></trkpt><trkpt lat="46.061798815118365" lon="12.554835780628826"><ele>149.7142857142857</ele><time>2026-04-25T13:42:44Z</time></trkpt><trkpt lat="46.06181037648519" lon="12.554929601063938"><ele>149.42857142857142</ele><time>2026-04-25T13:42:49Z</time></trkpt><trkpt lat="46.06180561884512" lon="12.555027671520545"><ele>149.14285714285714</ele><time>2026-04-25T13:42:56Z</time></trkpt><trkpt lat="46.06176742380025" lon="12.555103812805342"><ele>148.85714285714283</ele><time>2026-04-25T13:43:04Z</time></trkpt><trkpt lat="46.061706842565144" lon="12.555150083534283"><ele>148.57142857142856</ele><time>2026-04-25T13:43:10Z</time></trkpt><trkpt lat="46.061654133766794" lon="12.555214371807928"><ele>148.28571428571428</ele><time>2026-04-25T13:43:19Z</time></trkpt><trkpt lat="46.06163407868279" lon="12.555320417120763"><ele>148.0</ele><time>2026-04-25T13:43:31Z</time></trkpt><trkpt lat="46.061618886992456" lon="12.55542524564458"><ele>147.14285714285714</ele><time>2026-04-25T13:43:35Z</time></trkpt><trkpt lat="46.061601486162104" lon="12.55551446302026"><ele>146.28571428571428</ele><time>2026-04-25T13:43:41Z</time></trkpt><trkpt lat="46.06158748421971" lon="12.555607677619417"><ele>145.42857142857142</ele><time>2026-04-25T13:43:47Z</time></trkpt><trkpt lat="46.061572492328736" lon="12.555715736860359"><ele>144.57142857142856</ele><time>2026-04-25T13:43:52Z</time></trkpt><trkpt lat="46.06154859376967" lon="12.555808876713535"><ele>143.7142857142857</ele><time>2026-04-25T13:43:58Z</time></trkpt><trkpt lat="46.061525882710924" lon="12.55589744065105"><ele>142.85714285714286</ele><time>2026-04-25T13:44:05Z</time></trkpt><trkpt lat="46.06149028036503" lon="12.555985028659018"><ele>142.0</ele><time>2026-04-25T13:44:13Z</time></trkpt><trkpt lat="46.06147135748384" lon="12.556083200637893"><ele>142.0</ele><time>2026-04-25T13:44:20Z</time></trkpt><trkpt lat="46.06143714453096" lon="12.556173535445689"><ele>142.0</ele><time>2026-04-25T13:44:27Z</time></trkpt><trkpt lat="46.06140412071582" lon="12.556264982010212"><ele>142.0</ele><time>2026-04-25T13:44:32Z</time></trkpt><trkpt lat="46.06135131253137" lon="12.556317050641479"><ele>142.0</ele><time>2026-04-25T13:44:38Z</time></trkpt><trkpt lat="46.061287285872154" lon="12.556331223812577"><ele>142.0</ele><time>2026-04-25T13:44:44Z</time></trkpt><trkpt lat="46.06120323881158" lon="12.556326010281506"><ele>142.0</ele><time>2026-04-25T13:44:50Z</time></trkpt><trkpt lat="46.061128000751935" lon="12.556328539553117"><ele>142.0</ele><time>2026-04-25T13:44:55Z</time></trkpt><trkpt lat="46.06105468321744" lon="12.55630671955775"><ele>142.0</ele><time>2026-04-25T13:45:00Z</time></trkpt><trkpt lat="46.060991785799786" lon="12.556264196488899"><ele>142.0</ele><time>2026-04-25T13:45:06Z</time></trkpt><trkpt lat="46.06092698287976" lon="12.55628915428557"><ele>142.0</ele><time>2026-04-25T13:45:13Z</time></trkpt><trkpt lat="46.06097508887247" lon="12.556361225077339"><ele>142.0</ele><time>2026-04-25T13:45:22Z</time></trkpt><trkpt lat="46.061025028071484" lon="12.556425554418006"><ele>142.0</ele><time>2026-04-25T13:45:30Z</time></trkpt><trkpt lat="46.06107416168214" lon="12.556510691561455"><ele>142.0</ele><time>2026-04-25T13:45:36Z</time></trkpt><trkpt lat="46.061133192598106" lon="12.556559287556528"><ele>142.0</ele><time>2026-04-25T13:45:42Z</time></trkpt><trkpt lat="46.06119215156031" lon="12.556627179736404"><ele>142.0</ele><time>2026-04-25T13:45:48Z</time></trkpt><trkpt lat="46.06124083690379" lon="12.556699004414085"><ele>142.0</ele><time>2026-04-25T13:45:57Z</time></trkpt><trkpt lat="46.06128271131651" lon="12.556769592950856"><ele>142.0</ele><time>2026-04-25T13:46:01Z</time></trkpt><trkpt lat="46.06126162585315" lon="12.556855455446827"><ele>142.0</ele><time>2026-04-25T13:46:06Z</time></trkpt><trkpt lat="46.061220866876404" lon="12.556927172813802"><ele>142.0</ele><time>2026-04-25T13:46:11Z</time></trkpt><trkpt lat="46.0612193945741" lon="12.55702244192608"><ele>142.0</ele><time>2026-04-25T13:46:18Z</time></trkpt><trkpt lat="46.06115620736646" lon="12.557044210758546"><ele>142.0</ele><time>2026-04-25T13:46:41Z</time></trkpt><trkpt lat="46.06113237772821" lon="12.557139661782843"><ele>141.71428571428572</ele><time>2026-04-25T13:46:47Z</time></trkpt><trkpt lat="46.0610699730154" lon="12.557186585896584"><ele>141.42857142857142</ele><time>2026-04-25T13:46:54Z</time></trkpt><trkpt lat="46.06100081169353" lon="12.557228872624421"><ele>141.14285714285714</ele><time>2026-04-25T13:47:01Z</time></trkpt><trkpt lat="46.060943273818324" lon="12.557291312914126"><ele>140.85714285714286</ele><time>2026-04-25T13:47:06Z</time></trkpt><trkpt lat="46.06089590087641" lon="12.557353603679884"><ele>140.57142857142856</ele><time>2026-04-25T13:47:12Z</time></trkpt><trkpt lat="46.06085303615992" lon="12.557422630634388"><ele>140.28571428571428</ele><time>2026-04-25T13:47:19Z</time></trkpt><trkpt lat="46.06078477155244" lon="12.557469384332665"><ele>140.0</ele><time>2026-04-25T13:47:26Z</time></trkpt><trkpt lat="46.06070560100861" lon="12.557500993217632"><ele>139.71428571428572</ele><time>2026-04-25T13:47:34Z</time></trkpt><trkpt lat="46.06064614592217" lon="12.557543341287069"><ele>139.42857142857144</ele><time>2026-04-25T13:47:40Z</time></trkpt><trkpt lat="46.060578580194715" lon="12.557538739975287"><ele>139.14285714285714</ele><time>2026-04-25T13:47:46Z</time></trkpt><trkpt lat="46.060523002893646" lon="12.55748184378332"><ele>138.85714285714286</ele><time>2026-04-25T13:47:52Z</time></trkpt><trkpt lat="46.06046827658886" lon="12.557434551732108"><ele>138.57142857142858</ele><time>2026-04-25T13:47:58Z</time></trkpt><trkpt lat="46.06039878254962" lon="12.557411071868895"><ele>138.28571428571428</ele><time>2026-04-25T13:48:03Z</time></trkpt><trkpt lat="46.06033340896198" lon="12.557456434019123"><ele>138.0</ele><time>2026-04-25T13:48:09Z</time></trkpt><trkpt lat="46.06026238108734" lon="12.557484542069004"><ele>138.0</ele><time>2026-04-25T13:48:15Z</time></trkpt><trkpt lat="46.06019813970363" lon="12.55750670965956"><ele>138.0</ele><time>2026-04-25T13:48:20Z</time></trkpt><trkpt lat="46.06013419230495" lon="12.557521493182847"><ele>138.0</ele><time>2026-04-25T13:48:26Z</time></trkpt><trkpt lat="46.06006822866869" lon="12.557534547724435"><ele>138.0</ele><time>2026-04-25T13:48:32Z</time></trkpt><trkpt lat="46.06003753346908" lon="12.557616114987622"><ele>138.0</ele><time>2026-04-25T13:50:29Z</time></trkpt><trkpt lat="46.060067720024215" lon="12.557697164627632"><ele>138.0</ele><time>2026-04-25T13:50:36Z</time></trkpt><trkpt lat="46.060088346767174" lon="12.557800632222204"><ele>138.0</ele><time>2026-04-25T13:50:44Z</time></trkpt><trkpt lat="46.06011835132688" lon="12.55789839691588"><ele>137.42857142857144</ele><time>2026-04-25T13:50:49Z</time></trkpt><trkpt lat="46.06011146793572" lon="12.557990739165254"><ele>136.85714285714286</ele><time>2026-04-25T13:50:55Z</time></trkpt><trkpt lat="46.06007220030976" lon="12.55808103052253"><ele>136.28571428571428</ele><time>2026-04-25T13:51:05Z</time></trkpt><trkpt lat="46.060028151693416" lon="12.558156340306246"><ele>135.71428571428572</ele><time>2026-04-25T13:51:11Z</time></trkpt><trkpt lat="46.05998673308901" lon="12.558228846103198"><ele>135.14285714285714</ele><time>2026-04-25T13:51:17Z</time></trkpt><trkpt lat="46.05993927206599" lon="12.558318427854575"><ele>134.57142857142858</ele><time>2026-04-25T13:51:23Z</time></trkpt><trkpt lat="46.05988960578203" lon="12.558390791111924"><ele>134.0</ele><time>2026-04-25T13:51:29Z</time></trkpt><trkpt lat="46.059824752633716" lon="12.55840314769692"><ele>134.0</ele><time>2026-04-25T13:51:34Z</time></trkpt><trkpt lat="46.05975831745214" lon="12.558370544890456"><ele>134.0</ele><time>2026-04-25T13:51:40Z</time></trkpt><trkpt lat="46.059688999100686" lon="12.558343239995756"><ele>134.0</ele><time>2026-04-25T13:51:51Z</time></trkpt><trkpt lat="46.059685878983395" lon="12.558443944818332"><ele>134.0</ele><time>2026-04-25T13:52:00Z</time></trkpt><trkpt lat="46.05970727331963" lon="12.558529848957797"><ele>134.0</ele><time>2026-04-25T13:52:09Z</time></trkpt><trkpt lat="46.059681585107164" lon="12.558614097764215"><ele>134.0</ele><time>2026-04-25T13:52:15Z</time></trkpt><trkpt lat="46.059637057573234" lon="12.558682159895739"><ele>134.0</ele><time>2026-04-25T13:52:21Z</time></trkpt><trkpt lat="46.05958721154118" lon="12.558748185616434"><ele>133.85714285714286</ele><time>2026-04-25T13:52:27Z</time></trkpt><trkpt lat="46.05953162232485" lon="12.558814353778823"><ele>133.71428571428572</ele><time>2026-04-25T13:52:32Z</time></trkpt><trkpt lat="46.059491341348945" lon="12.55889113467558"><ele>133.57142857142856</ele><time>2026-04-25T13:52:38Z</time></trkpt><trkpt lat="46.05942808956265" lon="12.558930366124823"><ele>133.42857142857144</ele><time>2026-04-25T13:52:45Z</time></trkpt><trkpt lat="46.059364897941975" lon="12.558934244223778"><ele>133.28571428571428</ele><time>2026-04-25T13:52:49Z</time></trkpt><trkpt lat="46.059295384953344" lon="12.558925724022787"><ele>133.14285714285714</ele><time>2026-04-25T13:52:54Z</time></trkpt><trkpt lat="46.05923092115742" lon="12.558870442612966"><ele>133.0</ele><time>2026-04-25T13:53:00Z</time></trkpt><trkpt lat="46.059169592174165" lon="12.558831053164935"><ele>133.0</ele><time>2026-04-25T13:53:07Z</time></trkpt><trkpt lat="46.05912251653818" lon="12.558745480001095"><ele>133.0</ele><time>2026-04-25T13:53:13Z</time></trkpt><trkpt lat="46.059073438394115" lon="12.558684121542528"><ele>133.0</ele><time>2026-04-25T13:53:18Z</time></trkpt><trkpt lat="46.05902763304825" lon="12.558620997461608"><ele>133.0</ele><time>2026-04-25T13:53:24Z</time></trkpt><trkpt lat="46.058977208590804" lon="12.558554358157302"><ele>133.0</ele><time>2026-04-25T13:53:30Z</time></trkpt><trkpt lat="46.05892800661577" lon="12.558493748446878"><ele>133.0</ele><time>2026-04-25T13:53:36Z</time></trkpt><trkpt lat="46.05889667713706" lon="12.558395414046025"><ele>133.0</ele><time>2026-04-25T13:53:45Z</time></trkpt><trkpt lat="46.05890924613829" lon="12.558303391470899"><ele>133.0</ele><time>2026-04-25T13:53:52Z</time></trkpt><trkpt lat="46.05887220675216" lon="12.558226174718463"><ele>133.0</ele><time>2026-04-25T13:53:59Z</time></trkpt><trkpt lat="46.05884127803611" lon="12.558145955974156"><ele>133.0</ele><time>2026-04-25T13:54:04Z</time></trkpt><trkpt lat="46.05885377615071" lon="12.558050171865236"><ele>133.0</ele><time>2026-04-25T13:54:10Z</time></trkpt></trkseg></trk></gpx>